• Join FlightAware (Why Join?)
  • Login
  • US Flag 
07:32PM EDT


 

Airport Tracker/Info


-or-


 

Live Flight TrackerFlight Track Log ✈ ASQ4233 ✈ 03-May-2013 ✈ KIAH - KBHM

Flight Track Log - Related Links

Times and Time Zones

All times are in EDT time to prevent confusion due to time zone crossing. See the ASQ4233 flight status page for this flight to view local times or setup timezone preferences in your user account.

Time Position Orientation Groundspeed Altitude Reporting Facility
EDT Latitude Longitude Course Direction KTS MPH feet Rate Location/Type
07:09PM 29.9758 -95.3369 90° East 207 238 900  Level Houston Center
07:10PM 29.9233 -95.3144 160° South 253 291 3,300 1,560 Climbing Houston Center
07:11PM 29.9108 -95.2883 119° Southeast 256 295 3,700 720 Climbing Houston Center
07:11PM 29.8894 -95.2439 119° Southeast 269 310 4,000 660 Climbing Houston Center
07:12PM 29.8767 -95.2111 114° Southeast 265 305 4,400 1,980 Climbing Houston Center
07:12PM 29.8606 -95.1583 109° East 275 316 6,300 2,460 Climbing Houston Center
07:13PM 29.9834 -94.7732 90° East  Level FlightAware Approximate
07:13PM 29.8528 -95.1264 106° East 273 314 7,000  Level Houston Center
07:13PM 29.8636 -95.0542 80° East 299 344 8,600 1,980 Climbing Houston Center
07:14PM 29.9833 -94.6332 90° East  Level FlightAware Approximate
07:14PM 29.8683 -95.0328 76° East 293 337 9,100  Level Houston Center
07:14PM 29.8800 -94.9631 79° East 313 360 10,600 1,740 Climbing Houston Center
07:15PM 29.8856 -94.9328 78° East 310 357 10,900 1,020 Climbing Houston Center
07:16PM 29.9086 -94.8025 78° East 349 402 12,200 1,200 Climbing Houston Center
07:17PM 29.9278 -94.6961 78° East 385 443 13,400 1,380 Climbing Houston Center
07:18PM 29.9539 -94.5431 79° East 400 460 15,100 1,500 Climbing Houston Center
07:19PM 29.9764 -94.4233 78° East 406 467 16,500 1,200 Climbing Houston Center
07:20PM 29.9989 -94.2919 79° East 414 476 17,700 1,020 Climbing Houston Center
07:21PM 30.0156 -94.1550 82° East 427 491 18,700 1,140 Climbing Houston Center
07:22PM 30.0361 -93.9861 82° East 441 507 20,100 1,200 Climbing Houston Center
07:23PM 30.0542 -93.8419 82° East 452 520 21,300 1,140 Climbing Houston Center
07:24PM 30.0711 -93.6947 82° East 463 533 22,500 1,080 Climbing Houston Center
07:25PM 30.0892 -93.5475 82° East 469 540 23,600 1,200 Climbing Houston Center
07:26PM 30.1094 -93.3697 82° East 472 543 25,000 1,200 Climbing Houston Center
07:27PM 30.1267 -93.2219 82° East 471 542 26,200 1,140 Climbing Houston Center
07:28PM 30.1467 -93.0728 81° East 474 545 27,400 1,200 Climbing Houston Center
07:29PM 30.2031 -92.9447 63° Northeast 456 525 28,700 720 Climbing Houston Center
07:30PM 30.2717 -92.8211 57° Northeast 457 526 29,000 120 Climbing Houston Center
07:31PM 30.3433 -92.6908 57° Northeast 478 550 29,000  Level Houston Center
07:32PM 30.4325 -92.5300 57° Northeast 496 571 29,000  Level Houston Center
07:33PM 30.5078 -92.3906 58° Northeast 500 575 29,000  Level Houston Center
07:34PM 30.5825 -92.2542 58° Northeast 504 580 29,000  Level Houston Center
07:35PM 30.6564 -92.1189 58° Northeast 501 577 29,000  Level Houston Center
07:37PM 30.7289 -91.9836 58° Northeast 498 573 29,000  Level Houston Center
07:38PM 30.8189 -91.8197 57° Northeast 502 578 29,000  Level Houston Center
07:39PM 30.8922 -91.6822 58° Northeast 504 580 29,000  Level Houston Center
07:40PM 30.9672 -91.5442 58° Northeast 505 581 29,000  Level Houston Center
07:41PM 31.0397 -91.4061 58° Northeast 504 580 29,000  Level Houston Center
07:42PM 31.1219 -91.2506 58° Northeast 506 582 29,000  Level Houston Center
07:43PM 31.1967 -91.1111 58° Northeast 505 581 29,000  Level Houston Center
07:44PM 31.2703 -90.9706 58° Northeast 505 581 29,000  Level Houston Center
07:45PM 31.3447 -90.8275 59° Northeast 512 589 29,000  Level Houston Center
07:46PM 31.4200 -90.6856 58° Northeast 512 589 29,000  Level Houston Center
07:47PM 31.4933 -90.5447 59° Northeast 507 583 29,000 120 Level Houston Center
07:48PM 31.5683 -90.4006 59° Northeast 514 592 29,300 960 Climbing Houston Center
07:49PM 31.6544 -90.2356 58° Northeast 497 572 31,000 1,380 Climbing Houston Center
07:50PM 31.7239 -90.0997 59° Northeast 487 560 32,200 1,140 Climbing Houston Center
07:51PM 31.7758 -89.9933 60° Northeast 489 563 33,000 420 Climbing Memphis Center
07:52PM 31.8506 -89.8536 58° Northeast 489 563 33,000  Level Memphis Center
07:53PM 31.9228 -89.7086 60° Northeast 501 577 33,000  Level Memphis Center
07:54PM 31.9950 -89.5636 60° Northeast 501 577 33,000 -240 Level Memphis Center
07:55PM 32.0692 -89.4208 58° Northeast 506 582 32,600 -600 Descending Memphis Center
07:56PM 32.1142 -89.2831 69° East 495 570 31,800 -900 Descending Memphis Center
07:57PM 32.1628 -89.1353 69° East 490 564 30,900 -900 Descending Memphis Center
07:58PM 32.2114 -88.9922 68° East 478 550 30,000 -900 Descending Memphis Center
07:59PM 32.2639 -88.8439 67° East 473 544 29,100 -900 Descending Memphis Center
08:00PM 32.3228 -88.7028 64° Northeast 468 539 28,200 -960 Descending Memphis Center
08:01PM 32.3811 -88.5592 64° Northeast 468 539 27,200 -1,080 Descending Memphis Center
08:03PM 32.5200 -88.2561 61° Northeast 505 581 24,900 -1,140 Descending Atlanta Center
08:04PM 32.5856 -88.1064 63° Northeast 505 581 23,700 -1,200 Descending Atlanta Center
08:05PM 32.6419 -87.9733 63° Northeast 500 575 22,600 -1,200 Descending Atlanta Center
08:06PM 32.7089 -87.8381 60° Northeast 493 567 21,400 -1,200 Descending Atlanta Center
08:07PM 32.7756 -87.7000 60° Northeast 457 526 20,200 -1,260 Descending Atlanta Center
08:08PM 32.8208 -87.5808 66° East 423 487 18,900 -1,260 Descending Atlanta Center
08:09PM 32.8447 -87.4706 76° East 380 437 17,700 -1,500 Descending Atlanta Center
08:10PM 32.8706 -87.3678 73° East 347 399 16,000 -1,980 Descending Atlanta Center
08:10PM 32.8864 -87.3189 69° East 324 373 14,700 -2,100 Descending Atlanta Center
08:11PM 32.9086 -87.2678 63° Northeast 328 377 13,900 -2,100 Descending Atlanta Center
08:11PM 32.9417 -87.2044 58° Northeast 352 405 12,400 -2,040 Descending Atlanta Center
08:12PM 32.9611 -87.1731 54° Northeast 322 371 11,900 -1,320 Descending Atlanta Center
08:12PM 33.0003 -87.1200 49° Northeast 339 390 11,100 -900 Descending Atlanta Center
08:13PM 33.0236 -87.1011 34° Northeast 313 360 11,000 -120 Descending Atlanta Center
08:14PM 33.0922 -87.1108 353° North 308 354 11,000 -360 Level Atlanta Center
08:14PM 33.1758 -87.1064 North 318 366 10,400 -780 Descending Atlanta Center
08:15PM 33.1928 -87.0994 19° North 297 342 10,100 -1,920 Descending Atlanta Center
08:15PM 33.2550 -87.1067 354° North 312 359 8,700 -1,800 Descending Atlanta Center
08:16PM 33.2783 -87.1000 13° North 297 342 8,300 -1,380 Descending Atlanta Center
08:16PM 33.3428 -87.1072 355° North 284 327 7,200 -1,440 Descending Atlanta Center
08:17PM 33.3597 -87.1028 12° North 297 342 6,900 -1,560 Descending Atlanta Center
08:17PM 33.4056 -87.1044 358° North 235 270 5,800 -1,440 Descending Atlanta Center
08:18PM 33.4183 -87.0875 48° Northeast 274 315 5,500 -1,140 Descending Atlanta Center
08:18PM 33.4236 -87.0453 81° East 161 185 4,700 -1,140 Descending Atlanta Center
08:19PM 33.4281 -87.0306 70° East 172 198 4,400 -840 Descending Atlanta Center
08:19PM 33.4311 -86.9933 84° East 156 180 3,900 -720 Descending Atlanta Center
08:20PM 33.4356 -86.9786 70° East 149 171 3,700 -1,020 Descending Atlanta Center
08:20PM 33.4553 -86.9469 53° Northeast 172 198 2,900 -660 Descending Atlanta Center
08:21PM 33.4792 -86.9028 57° Northeast 168 193 2,600 -300 Descending Atlanta Center